| time (UTC) | temp C | wind direction | speed KPH | gust KPH | rain 1hr cm | rain 24hr cm | rain mn cm | humidity % | barometer mb |
| 20260507213031 | 22 | 323 | 14.5 | 25.7 | 0.00 | 0.00 | 0.00 | 35 | 1017.8 |
| 20260507211547 | 22 | 294 | 11.3 | 25.7 | 0.00 | 0.00 | 0.00 | 35 | 1017.9 |
| 20260507210030 | 22 | 301 | 14.5 | 24.1 | 0.00 | 0.00 | 0.00 | 36 | 1018.0 |
| 20260507204533 | 21 | 303 | 9.7 | 19.3 | 0.00 | 0.00 | 0.00 | 37 | 1018.3 |
| 20260507203032 | 21 | 333 | 8.0 | 17.7 | 0.00 | 0.00 | 0.00 | 37 | 1018.5 |
| 20260507201532 | 21 | 344 | 9.7 | 20.9 | 0.00 | 0.00 | 0.00 | 38 | 1018.6 |
| 20260507200106 | 22 | 356 | 8.0 | 20.9 | 0.00 | 0.00 | 0.00 | 37 | 1018.7 |
| 20260507194530 | 21 | 295 | 6.4 | 17.7 | 0.00 | 0.00 | 0.00 | 39 | 1018.8 |
| 20260507193033 | 20 | 301 | 6.4 | 16.1 | 0.00 | 0.00 | 0.00 | 42 | 1018.9 |
| 20260507191529 | 19 | 292 | 6.4 | 16.1 | 0.00 | 0.00 | 0.00 | 45 | 1019.1 |
| 20260507190029 | 18 | 336 | 6.4 | 16.1 | 0.00 | 0.00 | 0.00 | 48 | 1019.2 |
| 20260507184533 | 17 | 304 | 6.4 | 14.5 | 0.00 | 0.00 | 0.00 | 51 | 1019.3 |
| 20260507183038 | 17 | 259 | 8.0 | 16.1 | 0.00 | 0.00 | 0.00 | 53 | 1019.5 |
| 20260507181532 | 16 | 283 | 8.0 | 17.7 | 0.00 | 0.00 | 0.00 | 54 | 1019.6 |
| 20260507180029 | 17 | 313 | 8.0 | 17.7 | 0.00 | 0.00 | 0.00 | 55 | 1019.8 |
| 20260507174531 | 16 | 320 | 6.4 | 16.1 | 0.00 | 0.00 | 0.00 | 57 | 1019.7 |
| 20260507173029 | 16 | 300 | 8.0 | 12.9 | 0.00 | 0.00 | 0.00 | 57 | 1019.9 |
| 20260507171529 | 16 | 332 | 9.7 | 17.7 | 0.00 | 0.00 | 0.00 | 56 | 1020.0 |
| 20260507170033 | 17 | 333 | 11.3 | 24.1 | 0.00 | 0.00 | 0.00 | 56 | 1020.0 |
| 20260507164532 | 17 | 310 | 6.4 | 17.7 | 0.00 | 0.00 | 0.00 | 60 | 1020.0 |
| 20260507161532 | 16 | 241 | 6.4 | 12.9 | 0.00 | 0.00 | 0.00 | 64 | 1020.1 |
| 20260507160033 | 15 | 248 | 6.4 | 12.9 | 0.00 | 0.00 | 0.00 | 66 | 1020.4 |
| 20260507154533 | 15 | 220 | 8.0 | 12.9 | 0.00 | 0.00 | 0.00 | 67 | 1020.5 |
| 20260507153107 | 15 | 205 | 6.4 | 11.3 | 0.00 | 0.00 | 0.00 | 68 | 1020.6 |
| 20260507151531 | 14 | 108 | 0.0 | 6.4 | 0.00 | 0.00 | 0.00 | 72 | 1020.7 |
| 20260507150036 | 14 | 228 | 1.6 | 6.4 | 0.00 | 0.00 | 0.00 | 74 | 1020.6 |
| 20260507144532 | 13 | 308 | 3.2 | 6.4 | 0.00 | 0.00 | 0.00 | 81 | 1020.5 |
| 20260507143145 | 12 | 302 | 1.6 | 4.8 | 0.00 | 0.00 | 0.00 | 85 | 1020.6 |
| 20260507141530 | 10 | 57 | 0.0 | 4.8 | 0.00 | 0.00 | 0.00 | 89 | 1020.4 |
| 20260507134534 | 7 | 68 | 3.2 | 6.4 | 0.00 | 0.00 | 0.00 | 90 | 1020.1 |
| 20260507133145 | 7 | 105 | 4.8 | 6.4 | 0.00 | 0.00 | 0.00 | 90 | 1020.1 |
| 20260507131532 | 7 | 94 | 4.8 | 6.4 | 0.00 | 0.00 | 0.00 | 90 | 1020.1 |
| 20260507130030 | 7 | 47 | 1.6 | 6.4 | 0.00 | 0.00 | 0.00 | 90 | 1020.0 |
| 20260507123108 | 8 | 63 | 3.2 | 6.4 | 0.00 | 0.00 | 0.00 | 89 | 1019.8 |
| 20260507120037 | 8 | 89 | 4.8 | 9.7 | 0.00 | 0.00 | 0.00 | 87 | 1019.7 |
| 20260507114547 | 8 | 47 | 4.8 | 9.7 | 0.00 | 0.00 | 0.00 | 87 | 1019.6 |
| 20260507104545 | 10 | 68 | 6.4 | 16.1 | 0.00 | 0.00 | 0.00 | 82 | 1019.1 |
| 20260507103032 | 10 | 92 | 6.4 | 11.3 | 0.00 | 0.00 | 0.00 | 79 | 1019.1 |
| 20260507101607 | 11 | 112 | 4.8 | 12.9 | 0.00 | 0.00 | 0.00 | 79 | 1019.1 |
| 20260507100039 | 11 | 93 | 1.6 | 8.0 | 0.00 | 0.00 | 0.00 | 79 | 1019.1 |
| 20260507094531 | 11 | 54 | 1.6 | 6.4 | 0.00 | 0.00 | 0.00 | 79 | 1019.2 |
| 20260507093034 | 11 | 17 | 4.8 | 11.3 | 0.00 | 0.00 | 0.00 | 79 | 1019.3 |
| 20260507090108 | 11 | 73 | 4.8 | 9.7 | 0.00 | 0.00 | 0.00 | 81 | 1019.3 |
| 20260507084606 | 11 | 20 | 3.2 | 11.3 | 0.00 | 0.00 | 0.00 | 81 | 1019.3 |
| 20260507083106 | 11 | 16 | 6.4 | 11.3 | 0.00 | 0.00 | 0.00 | 81 | 1019.4 |
| 20260507081531 | 11 | 11 | 6.4 | 12.9 | 0.00 | 0.00 | 0.00 | 80 | 1019.5 |
| 20260507080108 | 11 | 13 | 6.4 | 12.9 | 0.00 | 0.00 | 0.00 | 80 | 1019.5 |
| 20260507074531 | 12 | 3 | 6.4 | 11.3 | 0.00 | 0.00 | 0.00 | 79 | 1019.5 |
| 20260507073032 | 12 | 3 | 6.4 | 12.9 | 0.00 | 0.00 | 0.00 | 78 | 1019.4 |
| 20260507071607 | 11 | 21 | 6.4 | 9.7 | 0.00 | 0.00 | 0.00 | 77 | 1019.4 |
| 20260507070030 | 11 | 237 | 1.6 | 6.4 | 0.00 | 0.00 | 0.00 | 76 | 1019.5 |
| 20260507064533 | 12 | 219 | 3.2 | 4.8 | 0.00 | 0.00 | 0.00 | 75 | 1019.6 |
| 20260507061605 | 13 | 54 | 3.2 | 9.7 | 0.00 | 0.00 | 0.00 | 68 | 1019.7 |
| 20260507060034 | 14 | 62 | 1.6 | 8.0 | 0.00 | 0.00 | 0.00 | 64 | 1019.8 |
| 20260507053031 | 15 | 228 | 9.7 | 20.9 | 0.00 | 0.00 | 0.00 | 58 | 1019.9 |
| 20260507051529 | 15 | 232 | 12.9 | 27.4 | 0.00 | 0.00 | 0.00 | 58 | 1019.8 |
| 20260507050031 | 15 | 234 | 16.1 | 30.6 | 0.00 | 0.00 | 0.00 | 57 | 1019.8 |
| 20260507044533 | 15 | 223 | 8.0 | 17.7 | 0.00 | 0.00 | 0.00 | 56 | 1020.0 |
| 20260507043029 | 15 | 230 | 4.8 | 11.3 | 0.00 | 0.00 | 0.00 | 56 | 1020.0 |
| 20260507041607 | 15 | 257 | 1.6 | 9.7 | 0.00 | 0.00 | 0.00 | 54 | 1020.0 |
| 20260507040050 | 16 | 229 | 3.2 | 9.7 | 0.00 | 0.00 | 0.00 | 52 | 1019.9 |
| 20260507034535 | 16 | 258 | 8.0 | 16.1 | 0.00 | 0.00 | 0.00 | 51 | 1019.7 |
| 20260507033030 | 17 | 270 | 11.3 | 29.0 | 0.00 | 0.00 | 0.00 | 51 | 1019.6 |
| 20260507031537 | 17 | 262 | 12.9 | 27.4 | 0.00 | 0.00 | 0.00 | 50 | 1019.4 |
| 20260507030030 | 17 | 255 | 14.5 | 32.2 | 0.00 | 0.00 | 0.00 | 50 | 1019.3 |
| 20260507024607 | 18 | 252 | 14.5 | 29.0 | 0.00 | 0.00 | 0.00 | 50 | 1019.3 |
| 20260507023029 | 18 | 252 | 14.5 | 32.2 | 0.00 | 0.00 | 0.00 | 49 | 1019.1 |
| 20260507021533 | 18 | 243 | 12.9 | 25.7 | 0.00 | 0.00 | 0.00 | 48 | 1019.1 |
| 20260507014529 | 18 | 230 | 11.3 | 32.2 | 0.00 | 0.00 | 0.00 | 51 | 1018.9 |
| 20260507013031 | 18 | 272 | 8.0 | 17.7 | 0.00 | 0.00 | 0.00 | 52 | 1018.9 |
| 20260507011533 | 18 | 285 | 11.3 | 24.1 | 0.00 | 0.00 | 0.00 | 50 | 1018.8 |
| 20260507010030 | 18 | 288 | 14.5 | 29.0 | 0.00 | 0.00 | 0.00 | 49 | 1018.7 |
| 20260507004531 | 20 | 274 | 16.1 | 33.8 | 0.00 | 0.00 | 0.00 | 47 | 1018.4 |
| 20260507001536 | 20 | 267 | 12.9 | 35.4 | 0.00 | 0.00 | 0.00 | 46 | 1018.4 |
| 20260507000031 | 21 | 278 | 16.1 | 27.4 | 0.00 | 0.00 | 0.00 | 45 | 1018.3 |
| 20260506234531 | 21 | 275 | 14.5 | 38.6 | 0.00 | 0.00 | 0.00 | 45 | 1018.2 |
| 20260506233107 | 22 | 277 | 12.9 | 29.0 | 0.00 | 0.00 | 0.00 | 44 | 1018.2 |
| 20260506230029 | 23 | 269 | 11.3 | 24.1 | 0.00 | 0.00 | 0.00 | 43 | 1018.4 |
| 20260506223030 | 23 | 283 | 17.7 | 33.8 | 0.00 | 0.00 | 0.00 | 44 | 1018.7 |
| 20260506221647 | 23 | 276 | 17.7 | 33.8 | 0.00 | 0.00 | 0.00 | 44 | 1018.7 |
| 20260506220107 | 23 | 278 | 17.7 | 32.2 | 0.00 | 0.00 | 0.00 | 43 | 1018.4 |
| 20260506214609 | 23 | 273 | 16.1 | 37.0 | 0.00 | 0.00 | 0.00 | 43 | 1018.3 |